createdAt,value
2022-08-01T00:00:03.295Z,18.90
2022-08-01T00:01:03.398Z,18.90
2022-08-01T00:02:03.939Z,18.90
2022-08-01T00:03:03.584Z,18.90
2022-08-01T00:04:03.520Z,18.80
2022-08-01T00:05:03.489Z,18.80
2022-08-01T00:06:03.471Z,18.80
2022-08-01T00:07:03.507Z,18.80
2022-08-01T00:08:03.519Z,18.80
2022-08-01T00:09:03.560Z,18.80
2022-08-01T00:10:03.793Z,18.80
2022-08-01T00:11:03.088Z,18.80
2022-08-01T00:12:02.846Z,18.80
2022-08-01T00:13:02.914Z,18.80
2022-08-01T00:14:02.902Z,18.80
2022-08-01T00:15:02.950Z,18.80
2022-08-01T00:16:02.995Z,18.80
2022-08-01T00:17:07.169Z,18.80
2022-08-01T00:18:03.104Z,18.80
2022-08-01T00:19:03.140Z,18.80
2022-08-01T00:20:03.242Z,18.80
2022-08-01T00:21:03.357Z,18.70
2022-08-01T00:22:03.445Z,18.70
2022-08-01T00:23:03.263Z,18.70
2022-08-01T00:24:03.350Z,18.70
2022-08-01T00:25:03.353Z,18.70
2022-08-01T00:26:03.458Z,18.70
2022-08-01T00:27:03.469Z,18.70
2022-08-01T00:28:04.025Z,18.70
2022-08-01T00:29:03.552Z,18.70
2022-08-01T00:30:10.664Z,18.70
2022-08-01T00:31:03.568Z,18.70
2022-08-01T00:32:03.867Z,18.70
2022-08-01T00:33:03.633Z,18.70
2022-08-01T00:34:03.588Z,18.60
2022-08-01T00:35:03.551Z,18.60
2022-08-01T00:36:03.616Z,18.60
2022-08-01T00:37:02.702Z,18.60
2022-08-01T00:38:02.678Z,18.60
2022-08-01T00:39:02.713Z,18.60
2022-08-01T00:40:02.691Z,18.60
2022-08-01T00:41:02.722Z,18.60
2022-08-01T00:42:03.084Z,18.60
2022-08-01T00:43:02.806Z,18.50
2022-08-01T00:44:03.165Z,18.50
2022-08-01T00:45:03.298Z,18.50
2022-08-01T00:46:03.252Z,18.50
2022-08-01T00:47:03.248Z,18.50
2022-08-01T00:48:03.225Z,18.50
2022-08-01T00:49:03.347Z,18.50
2022-08-01T00:50:03.269Z,18.50
2022-08-01T00:51:03.432Z,18.40
2022-08-01T00:52:03.807Z,18.40
2022-08-01T00:53:03.503Z,18.40
2022-08-01T00:54:03.592Z,18.40
2022-08-01T00:55:03.396Z,18.40
2022-08-01T00:56:03.393Z,18.40
2022-08-01T00:57:03.556Z,18.40
2022-08-01T00:58:05.885Z,18.40
2022-08-01T00:59:03.574Z,18.40
2022-08-01T01:00:03.520Z,18.40
2022-08-01T01:01:03.779Z,18.30
2022-08-01T01:02:03.703Z,18.40
2022-08-01T01:03:03.548Z,18.30
2022-08-01T01:04:03.530Z,18.30
2022-08-01T01:05:03.621Z,18.30
2022-08-01T01:06:02.697Z,18.30
2022-08-01T01:07:02.673Z,18.30
2022-08-01T01:08:02.718Z,18.30
2022-08-01T01:09:03.380Z,18.30
2022-08-01T01:10:02.813Z,18.30
2022-08-01T01:11:02.815Z,18.30
2022-08-01T01:12:02.936Z,18.20
2022-08-01T01:13:02.787Z,18.20
2022-08-01T01:14:02.832Z,18.20
2022-08-01T01:15:02.809Z,18.20
2022-08-01T01:16:03.408Z,18.20
2022-08-01T01:17:03.472Z,18.20
2022-08-01T01:18:03.405Z,18.20
2022-08-01T01:19:03.582Z,18.20
2022-08-01T01:20:03.513Z,18.20
2022-08-01T01:21:02.903Z,18.20
2022-08-01T01:22:02.873Z,18.20
2022-08-01T01:23:02.771Z,18.20
2022-08-01T01:24:02.829Z,18.20
2022-08-01T01:25:02.786Z,18.20
2022-08-01T01:26:02.913Z,18.20
2022-08-01T01:27:02.767Z,18.20
2022-08-01T01:28:02.696Z,18.20
2022-08-01T01:29:02.784Z,18.20
2022-08-01T01:30:02.837Z,18.20
2022-08-01T01:31:02.701Z,18.20
2022-08-01T01:32:03.880Z,18.20
2022-08-01T01:33:03.493Z,18.20
2022-08-01T01:34:03.550Z,18.20
2022-08-01T01:35:03.565Z,18.20
2022-08-01T01:36:03.590Z,18.20
2022-08-01T01:37:03.512Z,18.20
2022-08-01T01:38:03.521Z,18.20
2022-08-01T01:39:04.759Z,18.20
2022-08-01T01:40:02.781Z,18.20
2022-08-01T01:41:02.739Z,18.20
2022-08-01T01:42:02.923Z,18.20
2022-08-01T01:43:03.192Z,18.20
2022-08-01T01:44:03.294Z,18.30
2022-08-01T01:45:03.228Z,18.30
2022-08-01T01:46:03.311Z,18.30
2022-08-01T01:47:03.315Z,18.30
2022-08-01T01:48:03.322Z,18.30
2022-08-01T01:49:03.538Z,18.30
2022-08-01T01:50:03.410Z,18.30
2022-08-01T01:51:03.472Z,18.30
2022-08-01T01:52:03.678Z,18.30
2022-08-01T01:53:03.489Z,18.30
2022-08-01T01:54:03.466Z,18.40
2022-08-01T01:55:03.511Z,18.40
2022-08-01T01:56:03.584Z,18.40
2022-08-01T01:57:03.543Z,18.40
2022-08-01T01:58:03.534Z,18.40
2022-08-01T01:59:03.490Z,18.40
2022-08-01T02:00:03.476Z,18.40
2022-08-01T02:01:03.795Z,18.40
2022-08-01T02:02:06.243Z,18.40
2022-08-01T02:03:02.779Z,18.40
2022-08-01T02:04:02.796Z,18.40
2022-08-01T02:05:02.921Z,18.40
2022-08-01T02:06:02.950Z,18.40
2022-08-01T02:07:03.093Z,18.40
2022-08-01T02:08:03.025Z,18.40
2022-08-01T02:09:03.056Z,18.40
2022-08-01T02:10:03.087Z,18.40
2022-08-01T02:11:03.169Z,18.40
2022-08-01T02:12:07.733Z,18.40
2022-08-01T02:13:03.256Z,18.40
2022-08-01T02:14:03.372Z,18.40
2022-08-01T02:15:03.495Z,18.40
2022-08-01T02:16:03.483Z,18.40
2022-08-01T02:17:03.537Z,18.40
2022-08-01T02:18:03.529Z,18.40
2022-08-01T02:19:03.541Z,18.40
2022-08-01T02:20:03.519Z,18.40
2022-08-01T02:21:02.871Z,18.40
2022-08-01T02:22:02.931Z,18.40
2022-08-01T02:23:02.907Z,18.30
2022-08-01T02:24:05.928Z,18.40
2022-08-01T02:25:02.984Z,18.30
2022-08-01T02:26:08.558Z,18.30
2022-08-01T02:27:02.878Z,18.30
2022-08-01T02:28:02.939Z,18.30
2022-08-01T02:29:02.938Z,18.30
2022-08-01T02:30:03.052Z,18.30
2022-08-01T02:31:02.968Z,18.30
2022-08-01T02:32:03.371Z,18.30
2022-08-01T02:33:02.969Z,18.30
2022-08-01T02:34:03.059Z,18.30
2022-08-01T02:35:03.053Z,18.30
2022-08-01T02:36:29.346Z,18.30
2022-08-01T02:37:03.067Z,18.30
2022-08-01T02:38:03.291Z,18.30
2022-08-01T02:39:03.277Z,18.30
2022-08-01T02:40:03.278Z,18.30
2022-08-01T02:41:03.180Z,18.20
2022-08-01T02:42:03.815Z,18.20
2022-08-01T02:43:03.487Z,18.20
2022-08-01T02:44:03.546Z,18.20
2022-08-01T02:45:03.497Z,18.20
2022-08-01T02:46:03.494Z,18.20
2022-08-01T02:47:03.564Z,18.20
2022-08-01T02:48:03.383Z,18.20
2022-08-01T02:49:03.568Z,18.20
2022-08-01T02:50:03.456Z,18.20
2022-08-01T02:51:03.422Z,18.20
2022-08-01T02:52:03.622Z,18.20
2022-08-01T02:53:02.700Z,18.20
2022-08-01T02:54:02.681Z,18.20
2022-08-01T02:55:03.264Z,18.20
2022-08-01T02:56:02.923Z,18.20
2022-08-01T02:57:02.919Z,18.20
2022-08-01T02:58:03.044Z,18.20
2022-08-01T02:59:03.030Z,18.20
2022-08-01T03:00:03.068Z,18.20
2022-08-01T03:01:03.163Z,18.20
2022-08-01T03:02:03.497Z,18.20
2022-08-01T03:03:03.338Z,18.20
2022-08-01T03:04:03.270Z,18.20
2022-08-01T03:05:03.234Z,18.20
2022-08-01T03:06:03.365Z,18.20
2022-08-01T03:07:03.364Z,18.20
2022-08-01T03:08:03.697Z,18.20
2022-08-01T03:09:03.344Z,18.20
2022-08-01T03:10:03.383Z,18.20
2022-08-01T03:11:03.286Z,18.20
2022-08-01T03:12:03.666Z,18.20
2022-08-01T03:13:03.480Z,18.20
2022-08-01T03:14:03.618Z,18.20
2022-08-01T03:15:03.518Z,18.20
2022-08-01T03:16:02.667Z,18.20
2022-08-01T03:17:02.901Z,18.20
2022-08-01T03:18:02.803Z,18.20
2022-08-01T03:19:02.785Z,18.20
2022-08-01T03:20:02.914Z,18.20
2022-08-01T03:21:02.830Z,18.20
2022-08-01T03:22:03.130Z,18.20
2022-08-01T03:23:02.976Z,18.20
2022-08-01T03:24:02.998Z,18.20
2022-08-01T03:25:03.022Z,18.20
2022-08-01T03:26:03.046Z,18.20
2022-08-01T03:27:03.005Z,18.20
2022-08-01T03:28:02.957Z,18.20
2022-08-01T03:29:02.880Z,18.30
2022-08-01T03:30:03.038Z,18.30
2022-08-01T03:31:03.024Z,18.30
2022-08-01T03:32:03.184Z,18.30
2022-08-01T03:33:03.088Z,18.30
2022-08-01T03:34:05.710Z,18.30
2022-08-01T03:35:03.318Z,18.30
2022-08-01T03:36:03.281Z,18.30
2022-08-01T03:37:03.213Z,18.30
2022-08-01T03:38:15.652Z,18.30
2022-08-01T03:39:03.316Z,18.30
2022-08-01T03:40:03.267Z,18.30
2022-08-01T03:41:03.324Z,18.30
2022-08-01T03:42:03.254Z,18.30
2022-08-01T03:43:03.277Z,18.30
2022-08-01T03:44:03.331Z,18.30
2022-08-01T03:45:03.263Z,18.30
2022-08-01T03:46:02.746Z,18.30
2022-08-01T03:47:02.697Z,18.30
2022-08-01T03:48:03.603Z,18.30
2022-08-01T03:49:02.672Z,18.30
2022-08-01T03:50:02.675Z,18.30
2022-08-01T03:51:02.750Z,18.30
2022-08-01T03:52:03.017Z,18.30
2022-08-01T03:53:02.906Z,18.30
2022-08-01T03:54:02.904Z,18.30
2022-08-01T03:55:02.889Z,18.30
2022-08-01T03:56:02.991Z,18.30
2022-08-01T03:57:02.978Z,18.40
2022-08-01T03:58:05.132Z,18.40
2022-08-01T03:59:03.092Z,18.40
2022-08-01T04:00:03.219Z,18.40
2022-08-01T04:01:03.212Z,18.40
2022-08-01T04:02:03.299Z,18.40
2022-08-01T04:03:03.392Z,18.40
2022-08-01T04:04:03.435Z,18.50
2022-08-01T04:05:03.390Z,18.50
2022-08-01T04:06:03.450Z,18.50
2022-08-01T04:07:03.561Z,18.50
2022-08-01T04:08:03.547Z,18.50
2022-08-01T04:09:03.640Z,18.50
2022-08-01T04:10:03.579Z,18.50
2022-08-01T04:11:02.661Z,18.50
2022-08-01T04:12:08.802Z,18.50
2022-08-01T04:13:02.734Z,18.50
2022-08-01T04:14:03.553Z,18.60
2022-08-01T04:15:03.501Z,18.60
2022-08-01T04:16:02.674Z,18.60
2022-08-01T04:17:02.727Z,18.60
2022-08-01T04:18:02.849Z,18.60
2022-08-01T04:19:02.808Z,18.60
2022-08-01T04:20:02.855Z,18.60
2022-08-01T04:21:02.949Z,18.60
2022-08-01T04:22:03.088Z,18.60
2022-08-01T04:23:03.025Z,18.70
2022-08-01T04:24:02.989Z,18.70
2022-08-01T04:25:03.409Z,18.70
2022-08-01T04:26:03.213Z,18.70
2022-08-01T04:27:03.293Z,18.70
2022-08-01T04:28:03.197Z,18.70
2022-08-01T04:29:03.146Z,18.70
2022-08-01T04:30:03.168Z,18.70
2022-08-01T04:31:03.255Z,18.70
2022-08-01T04:32:03.514Z,18.80
2022-08-01T04:33:03.172Z,18.80
2022-08-01T04:34:03.232Z,18.80
2022-08-01T04:35:03.293Z,18.80
2022-08-01T04:36:04.702Z,18.80
2022-08-01T04:37:02.702Z,18.80
2022-08-01T04:38:02.796Z,18.80
2022-08-01T04:39:02.709Z,18.80
2022-08-01T04:40:02.740Z,18.90
2022-08-01T04:41:08.807Z,18.90
2022-08-01T04:42:02.974Z,18.90
2022-08-01T04:43:02.808Z,18.90
2022-08-01T04:44:02.855Z,18.90
2022-08-01T04:45:02.823Z,18.90
2022-08-01T04:46:02.904Z,19.00
2022-08-01T04:47:02.787Z,19.00
2022-08-01T04:48:02.922Z,19.00
2022-08-01T04:49:02.865Z,19.00
2022-08-01T04:50:02.910Z,19.00
2022-08-01T04:51:02.866Z,19.10
2022-08-01T04:52:03.200Z,19.10
2022-08-01T04:53:03.051Z,19.10
2022-08-01T04:54:03.026Z,19.10
2022-08-01T04:55:02.958Z,19.10
2022-08-01T04:56:02.984Z,19.10
2022-08-01T04:57:03.096Z,19.10
2022-08-01T04:58:03.349Z,19.20
2022-08-01T04:59:03.339Z,19.20
2022-08-01T05:00:03.245Z,19.20
2022-08-01T05:01:03.457Z,19.20
2022-08-01T05:02:03.426Z,19.20
2022-08-01T05:03:03.497Z,19.20
2022-08-01T05:04:03.553Z,19.20
2022-08-01T05:05:03.483Z,19.30
2022-08-01T05:06:03.468Z,19.30
2022-08-01T05:07:03.409Z,19.30
2022-08-01T05:08:03.545Z,19.30
2022-08-01T05:09:02.948Z,19.30
2022-08-01T05:10:02.645Z,19.40
2022-08-01T05:11:02.625Z,19.40
2022-08-01T05:12:02.856Z,19.40
2022-08-01T05:13:02.789Z,19.40
2022-08-01T05:14:03.330Z,19.40
2022-08-01T05:15:03.387Z,19.50
2022-08-01T05:16:03.450Z,19.50
2022-08-01T05:17:03.427Z,19.50
2022-08-01T05:18:03.375Z,19.50
2022-08-01T05:19:03.522Z,19.60
2022-08-01T05:20:03.512Z,19.60
2022-08-01T05:21:03.651Z,19.60
2022-08-01T05:22:03.962Z,19.60
2022-08-01T05:23:03.612Z,19.70
2022-08-01T05:24:03.659Z,19.70
2022-08-01T05:25:02.715Z,19.70
2022-08-01T05:26:02.655Z,19.70
2022-08-01T05:27:03.383Z,19.80
2022-08-01T05:28:02.839Z,19.80
2022-08-01T05:29:02.959Z,19.80
2022-08-01T05:30:03.000Z,19.80
2022-08-01T05:31:03.047Z,19.90
2022-08-01T05:32:03.184Z,19.90
2022-08-01T05:33:02.875Z,19.90
2022-08-01T05:34:04.122Z,20.00
2022-08-01T05:35:03.075Z,20.00
2022-08-01T05:36:03.057Z,20.00
2022-08-01T05:37:02.981Z,20.10
2022-08-01T05:38:03.556Z,20.10
2022-08-01T05:39:02.853Z,20.10
2022-08-01T05:40:02.721Z,20.10
2022-08-01T05:41:02.825Z,20.10
2022-08-01T05:42:03.158Z,20.20
2022-08-01T05:43:02.743Z,20.20
2022-08-01T05:44:02.831Z,20.20
2022-08-01T05:45:02.744Z,20.20
2022-08-01T05:46:02.813Z,20.20
2022-08-01T05:47:02.862Z,20.20
2022-08-01T05:48:02.893Z,20.20
2022-08-01T05:49:02.918Z,20.20
2022-08-01T05:50:02.824Z,20.20
2022-08-01T05:51:02.730Z,20.20
2022-08-01T05:52:03.510Z,20.20
2022-08-01T05:53:02.930Z,20.30
2022-08-01T05:54:02.920Z,20.30
2022-08-01T05:55:02.824Z,20.30
2022-08-01T05:56:02.942Z,20.30
2022-08-01T05:57:02.961Z,20.30
2022-08-01T05:58:02.892Z,20.30
2022-08-01T05:59:03.218Z,20.30
2022-08-01T06:00:03.348Z,20.30
2022-08-01T06:01:03.380Z,20.30
2022-08-01T06:02:03.771Z,20.30
2022-08-01T06:03:03.526Z,20.30
2022-08-01T06:04:03.438Z,20.30
2022-08-01T06:05:03.446Z,20.30
2022-08-01T06:06:03.415Z,20.30
2022-08-01T06:07:03.367Z,20.30
2022-08-01T06:08:03.315Z,20.30
2022-08-01T06:09:03.485Z,20.30
2022-08-01T06:10:03.416Z,20.30
2022-08-01T06:11:03.479Z,20.30
2022-08-01T06:12:03.708Z,20.30
2022-08-01T06:13:03.412Z,20.30
2022-08-01T06:14:03.469Z,20.30
2022-08-01T06:15:03.607Z,20.30
2022-08-01T06:16:03.526Z,20.30
2022-08-01T06:17:03.515Z,20.30
2022-08-01T06:18:02.635Z,20.40
2022-08-01T06:19:02.779Z,20.40
2022-08-01T06:20:02.778Z,20.40
2022-08-01T06:21:02.743Z,20.40
2022-08-01T06:22:03.108Z,20.40
2022-08-01T06:23:05.823Z,20.40
2022-08-01T06:24:02.825Z,20.40
2022-08-01T06:25:02.810Z,20.50
2022-08-01T06:26:02.924Z,20.50
2022-08-01T06:27:02.848Z,20.50
2022-08-01T06:28:02.801Z,20.50
2022-08-01T06:29:02.877Z,20.50
2022-08-01T06:30:02.829Z,20.50
2022-08-01T06:31:02.872Z,20.60
2022-08-01T06:32:03.094Z,20.60
2022-08-01T06:33:02.791Z,20.60
2022-08-01T06:34:02.826Z,20.60
2022-08-01T06:35:02.819Z,20.60
2022-08-01T06:36:02.795Z,20.60
2022-08-01T06:37:05.818Z,20.60
2022-08-01T06:38:02.830Z,20.60
2022-08-01T06:39:02.810Z,20.60
2022-08-01T06:40:02.835Z,20.60
2022-08-01T06:41:02.917Z,20.70
2022-08-01T06:42:03.161Z,20.70
2022-08-01T06:43:03.014Z,20.70
2022-08-01T06:44:02.993Z,20.70
2022-08-01T06:45:02.963Z,20.70
2022-08-01T06:46:02.909Z,20.70
2022-08-01T06:47:02.909Z,20.80
2022-08-01T06:48:02.893Z,20.80
2022-08-01T06:49:02.922Z,20.80
2022-08-01T06:50:02.818Z,20.80
2022-08-01T06:51:02.858Z,20.80
2022-08-01T06:52:02.952Z,20.90
2022-08-01T06:53:02.865Z,20.90
2022-08-01T06:54:03.011Z,20.90
2022-08-01T06:55:03.385Z,20.90
2022-08-01T06:56:03.372Z,20.90
2022-08-01T06:57:03.299Z,20.90
2022-08-01T06:58:03.486Z,21.00
2022-08-01T06:59:03.375Z,21.00
2022-08-01T07:00:03.379Z,21.00
2022-08-01T07:01:03.541Z,21.00
2022-08-01T07:02:03.838Z,21.00
2022-08-01T07:03:03.507Z,21.00
2022-08-01T07:04:03.535Z,21.10
2022-08-01T07:05:03.826Z,21.10
2022-08-01T07:06:03.535Z,21.10
2022-08-01T07:07:03.586Z,21.10
2022-08-01T07:08:03.523Z,21.10
2022-08-01T07:09:07.343Z,21.20
2022-08-01T07:10:02.726Z,21.20
2022-08-01T07:11:02.895Z,21.20
2022-08-01T07:12:02.970Z,21.20
2022-08-01T07:13:02.748Z,21.30
2022-08-01T07:14:02.811Z,21.30
2022-08-01T07:15:02.915Z,21.30
2022-08-01T07:16:02.921Z,21.30
2022-08-01T07:17:03.015Z,21.30
2022-08-01T07:18:03.232Z,21.30
2022-08-01T07:19:03.220Z,21.40
2022-08-01T07:20:03.129Z,21.40
2022-08-01T07:21:03.253Z,21.40
2022-08-01T07:22:03.996Z,21.40
2022-08-01T07:23:03.216Z,21.40
2022-08-01T07:24:05.686Z,21.40
2022-08-01T07:25:03.499Z,21.40
2022-08-01T07:26:03.539Z,21.40
2022-08-01T07:27:11.558Z,21.40
2022-08-01T07:28:03.564Z,21.40
2022-08-01T07:29:03.540Z,21.40
2022-08-01T07:30:03.576Z,21.40
2022-08-01T07:31:03.512Z,21.40
2022-08-01T07:32:03.759Z,21.40
2022-08-01T07:33:03.516Z,21.40
2022-08-01T07:34:03.529Z,21.40
2022-08-01T07:35:03.582Z,21.50
2022-08-01T07:36:03.621Z,21.40
2022-08-01T07:37:03.541Z,21.50
2022-08-01T07:38:03.498Z,21.50
2022-08-01T07:39:03.510Z,21.50
2022-08-01T07:40:03.587Z,21.50
2022-08-01T07:41:03.630Z,21.50
2022-08-01T07:42:07.023Z,21.50
2022-08-01T07:43:03.530Z,21.50
2022-08-01T07:44:04.752Z,21.50
2022-08-01T07:45:03.585Z,21.50
2022-08-01T07:46:03.610Z,21.50
2022-08-01T07:47:02.657Z,21.50
2022-08-01T07:48:03.652Z,21.60
2022-08-01T07:49:03.603Z,21.60
2022-08-01T07:50:03.580Z,21.60
2022-08-01T07:51:02.699Z,21.60
2022-08-01T07:52:04.235Z,21.60
2022-08-01T07:53:02.721Z,21.60
2022-08-01T07:54:02.709Z,21.60
2022-08-01T07:55:02.915Z,21.60
2022-08-01T07:56:02.842Z,21.70
2022-08-01T07:57:02.932Z,21.70
2022-08-01T07:58:02.925Z,21.70
2022-08-01T07:59:02.947Z,21.70
2022-08-01T08:00:02.984Z,21.60
2022-08-01T08:01:02.999Z,21.60
2022-08-01T08:02:03.134Z,21.60
2022-08-01T08:03:02.987Z,21.60
2022-08-01T08:04:03.035Z,21.50
2022-08-01T08:05:03.001Z,21.50
2022-08-01T08:06:02.993Z,21.40
2022-08-01T08:07:03.042Z,21.30
2022-08-01T08:08:02.951Z,21.20
2022-08-01T08:09:02.966Z,21.10
2022-08-01T08:10:02.901Z,21.10
2022-08-01T08:11:02.834Z,21.00
2022-08-01T08:12:03.159Z,21.00
2022-08-01T08:13:02.970Z,20.90
2022-08-01T08:14:02.837Z,20.80
2022-08-01T08:15:02.732Z,20.80
2022-08-01T08:16:02.705Z,20.70
2022-08-01T08:17:02.896Z,20.70
2022-08-01T08:18:03.089Z,20.60
2022-08-01T08:19:03.030Z,20.50
2022-08-01T08:20:02.980Z,20.50
2022-08-01T08:21:06.548Z,20.40
2022-08-01T08:22:03.235Z,20.40
2022-08-01T08:23:03.147Z,20.40
2022-08-01T08:24:03.287Z,20.40
2022-08-01T08:25:03.315Z,20.30
2022-08-01T08:26:03.255Z,20.30
2022-08-01T08:27:03.206Z,20.30
2022-08-01T08:28:03.215Z,20.30
2022-08-01T08:29:03.313Z,20.30
2022-08-01T08:30:03.310Z,20.30
2022-08-01T08:31:03.433Z,20.30
2022-08-01T08:32:03.362Z,20.30
2022-08-01T08:33:03.209Z,20.30
2022-08-01T08:34:03.328Z,20.30
2022-08-01T08:35:03.393Z,20.30
2022-08-01T08:36:02.843Z,20.20
2022-08-01T08:37:02.688Z,20.20
2022-08-01T08:38:02.804Z,20.20
2022-08-01T08:39:02.803Z,20.20
2022-08-01T08:40:02.721Z,20.20
2022-08-01T08:41:02.735Z,20.20
2022-08-01T08:42:02.703Z,20.20
2022-08-01T08:43:02.695Z,20.10
2022-08-01T08:44:02.685Z,20.10
2022-08-01T08:45:03.666Z,20.10
2022-08-01T08:46:03.623Z,20.20
2022-08-01T08:47:03.507Z,20.20
2022-08-01T08:48:03.510Z,20.20
2022-08-01T08:49:03.523Z,20.20
2022-08-01T08:50:03.613Z,20.20
2022-08-01T08:51:03.522Z,20.20
2022-08-01T08:52:03.580Z,20.20
2022-08-01T08:53:03.547Z,20.20
2022-08-01T08:54:03.518Z,20.30
2022-08-01T08:55:03.452Z,20.30
2022-08-01T08:56:03.506Z,20.30
2022-08-01T08:57:03.662Z,20.40
2022-08-01T08:58:02.625Z,20.40
2022-08-01T08:59:02.743Z,20.60
2022-08-01T09:00:02.813Z,20.60
2022-08-01T09:01:02.739Z,20.70
2022-08-01T09:02:02.740Z,20.90
2022-08-01T09:03:02.770Z,21.00
2022-08-01T09:04:02.798Z,21.10
2022-08-01T09:05:02.862Z,21.20
2022-08-01T09:06:02.835Z,21.40
2022-08-01T09:07:02.867Z,21.50
2022-08-01T09:08:02.914Z,21.60
2022-08-01T09:09:03.016Z,21.70
2022-08-01T09:10:02.940Z,21.80
2022-08-01T09:11:02.923Z,21.90
2022-08-01T09:12:03.059Z,22.00
2022-08-01T09:13:03.550Z,22.10
2022-08-01T09:14:02.669Z,22.20
2022-08-01T09:15:02.617Z,22.30
2022-08-01T09:16:02.643Z,22.40
2022-08-01T09:17:03.618Z,22.50
2022-08-01T09:18:02.729Z,22.60
2022-08-01T09:19:02.626Z,22.70
2022-08-01T09:20:02.731Z,22.70
2022-08-01T09:21:02.816Z,22.80
2022-08-01T09:22:03.159Z,22.80
2022-08-01T09:23:02.912Z,22.90
2022-08-01T09:24:03.013Z,22.90
2022-08-01T09:25:03.033Z,22.90
2022-08-01T09:26:03.117Z,22.90
2022-08-01T09:27:03.418Z,23.00
2022-08-01T09:28:02.805Z,23.00
2022-08-01T09:29:02.900Z,23.00
2022-08-01T09:30:02.834Z,23.00
2022-08-01T09:31:02.961Z,23.10
2022-08-01T09:32:03.055Z,23.10
2022-08-01T09:33:06.486Z,23.20
2022-08-01T09:34:03.202Z,23.30
2022-08-01T09:35:03.151Z,23.30
2022-08-01T09:36:03.075Z,23.30
2022-08-01T09:37:03.216Z,23.30
2022-08-01T09:38:03.221Z,23.30
2022-08-01T09:39:03.134Z,23.30
2022-08-01T09:40:03.108Z,23.40
2022-08-01T09:41:02.645Z,23.40
2022-08-01T09:42:02.756Z,23.40
2022-08-01T09:43:03.097Z,23.40
2022-08-01T09:44:02.903Z,23.40
2022-08-01T09:45:03.020Z,23.50
2022-08-01T09:46:03.091Z,23.50
2022-08-01T09:47:07.266Z,23.50
2022-08-01T09:48:02.950Z,23.60
2022-08-01T09:49:02.982Z,23.60
2022-08-01T09:50:06.304Z,23.70
2022-08-01T09:51:05.085Z,23.70
2022-08-01T09:52:03.152Z,23.70
2022-08-01T09:53:03.202Z,23.80
2022-08-01T09:54:03.273Z,23.90
2022-08-01T09:55:03.213Z,23.90
2022-08-01T09:56:03.374Z,23.90
2022-08-01T09:57:03.540Z,24.00
2022-08-01T09:58:03.422Z,24.00
2022-08-01T09:59:03.343Z,24.10
2022-08-01T10:00:03.434Z,24.10
2022-08-01T10:01:03.506Z,24.20
2022-08-01T10:02:03.644Z,24.20
2022-08-01T10:03:10.149Z,24.20
2022-08-01T10:04:02.835Z,24.20
2022-08-01T10:05:03.511Z,24.20
2022-08-01T10:06:02.749Z,24.10
2022-08-01T10:07:02.606Z,24.20
2022-08-01T10:08:03.536Z,24.20
2022-08-01T10:09:04.771Z,24.20
2022-08-01T10:10:03.588Z,24.10
2022-08-01T10:11:03.604Z,24.10
2022-08-01T10:12:03.614Z,24.10
2022-08-01T10:13:03.651Z,24.10
2022-08-01T10:14:03.582Z,24.10
2022-08-01T10:15:02.705Z,24.10
2022-08-01T10:16:02.687Z,24.10
2022-08-01T10:17:05.044Z,24.10
2022-08-01T10:18:02.830Z,24.10
2022-08-01T10:19:02.912Z,24.10
2022-08-01T10:20:02.877Z,24.10
2022-08-01T10:21:02.810Z,24.10
2022-08-01T10:22:02.846Z,24.10
2022-08-01T10:23:02.901Z,24.10
2022-08-01T10:24:03.403Z,24.10
2022-08-01T10:25:02.775Z,24.10
2022-08-01T10:26:02.901Z,24.10
2022-08-01T10:27:05.660Z,24.10
2022-08-01T10:28:03.487Z,24.10
2022-08-01T10:29:03.540Z,24.10
2022-08-01T10:30:06.973Z,24.00
2022-08-01T10:31:03.286Z,23.90
2022-08-01T10:32:05.617Z,23.90
2022-08-01T10:33:03.369Z,23.90
2022-08-01T10:34:03.274Z,23.80
2022-08-01T10:35:06.446Z,23.80
2022-08-01T10:36:03.242Z,23.80
2022-08-01T10:37:03.741Z,23.70
2022-08-01T10:38:03.336Z,23.70
2022-08-01T10:39:03.266Z,23.70
2022-08-01T10:40:28.666Z,23.60
2022-08-01T10:41:02.963Z,23.60
2022-08-01T10:42:03.778Z,23.60
2022-08-01T10:43:03.105Z,23.60
2022-08-01T10:44:03.044Z,23.50
2022-08-01T10:45:02.992Z,23.50
2022-08-01T10:46:03.107Z,23.50
2022-08-01T10:47:03.091Z,23.50
2022-08-01T10:48:03.169Z,23.50
2022-08-01T10:49:03.148Z,23.50
2022-08-01T10:50:03.224Z,23.60
2022-08-01T10:51:03.392Z,23.60
2022-08-01T10:52:03.370Z,23.50
2022-08-01T10:53:05.606Z,23.60
2022-08-01T10:54:03.268Z,23.60
2022-08-01T10:55:03.434Z,23.60
2022-08-01T10:56:03.438Z,23.60
2022-08-01T10:57:03.802Z,23.60
2022-08-01T10:58:03.469Z,23.70
2022-08-01T10:59:05.970Z,23.70
2022-08-01T11:00:03.458Z,23.70
2022-08-01T11:01:03.569Z,23.70
2022-08-01T11:02:03.745Z,23.80
2022-08-01T11:03:02.690Z,23.80
2022-08-01T11:04:02.673Z,23.90
2022-08-01T11:05:02.739Z,23.90
2022-08-01T11:06:02.661Z,23.90
2022-08-01T11:07:02.600Z,24.00
2022-08-01T11:08:02.669Z,24.00
2022-08-01T11:09:02.782Z,24.00
2022-08-01T11:10:02.718Z,24.10
2022-08-01T11:11:02.695Z,24.10
2022-08-01T11:12:02.717Z,24.10
2022-08-01T11:13:02.729Z,24.20
2022-08-01T11:14:02.751Z,24.20
2022-08-01T11:15:03.471Z,24.20
2022-08-01T11:16:05.788Z,24.30
2022-08-01T11:17:02.914Z,24.30
2022-08-01T11:18:02.847Z,24.30
2022-08-01T11:19:02.829Z,24.40
2022-08-01T11:20:03.408Z,24.40
2022-08-01T11:21:56.518Z,24.40
2022-08-01T11:22:01.856Z,24.40
2022-08-01T11:23:03.335Z,24.40
2022-08-01T11:24:02.762Z,24.40
2022-08-01T11:25:02.745Z,24.40
2022-08-01T11:26:04.648Z,24.40
2022-08-01T11:27:02.661Z,24.40
2022-08-01T11:28:02.727Z,24.40
2022-08-01T11:29:19.283Z,24.40
2022-08-01T11:30:02.838Z,24.40
2022-08-01T11:31:02.735Z,24.40
2022-08-01T11:32:02.896Z,24.40
2022-08-01T11:33:10.904Z,24.40
2022-08-01T11:34:03.551Z,24.40
2022-08-01T11:35:02.934Z,24.40
2022-08-01T11:36:02.880Z,24.40
2022-08-01T11:37:03.194Z,24.40
2022-08-01T11:38:02.916Z,24.40
2022-08-01T11:39:03.041Z,24.40
2022-08-01T11:40:03.032Z,24.40
2022-08-01T11:41:03.218Z,24.40
2022-08-01T11:42:03.139Z,24.40
2022-08-01T11:43:03.127Z,24.40
2022-08-01T11:44:03.108Z,24.40
2022-08-01T11:45:03.074Z,24.40
2022-08-01T11:46:03.113Z,24.50
2022-08-01T11:47:08.842Z,24.50
2022-08-01T11:48:03.158Z,24.50
2022-08-01T11:49:03.160Z,24.50
2022-08-01T11:50:03.046Z,24.60
2022-08-01T11:51:02.974Z,24.60
2022-08-01T11:52:02.994Z,24.70
2022-08-01T11:53:03.068Z,24.80
2022-08-01T11:54:03.125Z,24.90
2022-08-01T11:55:02.971Z,25.00
2022-08-01T11:56:03.037Z,25.00
2022-08-01T11:57:02.987Z,25.10
2022-08-01T11:58:02.917Z,25.10
2022-08-01T11:59:03.052Z,25.10
2022-08-01T12:00:04.375Z,25.10
2022-08-01T12:01:03.151Z,25.10
2022-08-01T12:02:03.303Z,25.20
2022-08-01T12:03:04.670Z,25.20
2022-08-01T12:04:03.235Z,25.20
2022-08-01T12:05:03.301Z,25.30
2022-08-01T12:06:03.382Z,25.30
2022-08-01T12:07:03.537Z,25.30
2022-08-01T12:08:03.311Z,25.30
2022-08-01T12:09:03.330Z,25.30
2022-08-01T12:10:03.417Z,25.40
2022-08-01T12:11:03.635Z,25.40
2022-08-01T12:12:03.390Z,25.40
2022-08-01T12:13:03.483Z,25.40
2022-08-01T12:14:02.807Z,25.40
2022-08-01T12:15:02.823Z,25.40
2022-08-01T12:16:03.267Z,25.50
2022-08-01T12:17:02.700Z,25.50
2022-08-01T12:18:02.703Z,25.50
2022-08-01T12:19:02.690Z,25.50
2022-08-01T12:20:02.794Z,25.50
2022-08-01T12:21:03.424Z,25.60
2022-08-01T12:22:03.468Z,25.60
2022-08-01T12:23:03.634Z,25.60
2022-08-01T12:24:03.549Z,25.60
2022-08-01T12:25:03.578Z,25.50
2022-08-01T12:26:02.619Z,25.50
2022-08-01T12:27:02.757Z,25.50
2022-08-01T12:28:02.802Z,25.50
2022-08-01T12:29:02.839Z,25.50
2022-08-01T12:30:02.929Z,25.50
2022-08-01T12:31:02.866Z,25.60
2022-08-01T12:32:02.965Z,25.60
2022-08-01T12:33:02.809Z,25.60
2022-08-01T12:34:02.819Z,25.70
2022-08-01T12:35:02.826Z,25.70
2022-08-01T12:36:02.859Z,25.70
2022-08-01T12:37:03.704Z,25.80
2022-08-01T12:38:02.974Z,25.80
2022-08-01T12:39:03.089Z,25.90
2022-08-01T12:40:03.041Z,26.00
2022-08-01T12:41:02.943Z,26.00
2022-08-01T12:42:03.082Z,26.10
2022-08-01T12:43:03.054Z,26.10
2022-08-01T12:44:03.108Z,26.20
2022-08-01T12:45:03.605Z,26.20
2022-08-01T12:46:03.594Z,26.20
2022-08-01T12:47:03.724Z,26.20
2022-08-01T12:48:03.430Z,26.20
2022-08-01T12:49:03.546Z,26.20
2022-08-01T12:50:03.477Z,26.30
2022-08-01T12:51:03.583Z,26.30
2022-08-01T12:52:02.649Z,26.30